Time;durP1;ratioP1;P1;durP2;ratioP2;P2;SDS_P1;SDS_P2;PMS_P1;PMS_P2;Temp;Humidity;BMP_temperature;BMP_pressure;BME280_temperature;BME280_humidity;BME280_pressure;Samples;Min_cycle;Max_cycle;Signal;HPM_P1;HPM_P2
2022/03/16 00:01:36;;;;;;;7.15;3.60;;;;;;;8.19;99.99;101871.97;4972115;28;20524;-60
2022/03/16 00:04:02;;;;;;;9.50;3.30;;;;;;;8.15;100.00;101873.69;4966740;28;20042;-61
2022/03/16 00:06:27;;;;;;;6.63;3.05;;;;;;;8.14;99.95;101869.44;4972770;28;20050;-62
2022/03/16 00:08:53;;;;;;;8.88;3.33;;;;;;;8.15;100.00;101879.03;4972550;28;20118;-62
2022/03/16 00:11:18;;;;;;;8.45;3.42;;;;;;;8.14;100.00;101872.91;4972950;28;20027;-62
2022/03/16 00:13:44;;;;;;;6.75;2.47;;;;;;;8.14;99.81;101878.28;4972930;28;20402;-61
2022/03/16 00:16:09;;;;;;;6.55;3.00;;;;;;;8.16;100.00;101886.00;4958670;28;20039;-61
2022/03/16 00:18:35;;;;;;;10.65;4.10;;;;;;;8.11;99.75;101894.97;4959167;28;20395;-60
2022/03/16 00:21:00;;;;;;;8.90;3.38;;;;;;;8.08;99.83;101894.78;4966387;28;20039;-60
2022/03/16 00:23:26;;;;;;;10.57;3.15;;;;;;;8.06;99.79;101897.00;4973466;28;20470;-61
2022/03/16 00:25:52;;;;;;;8.75;3.13;;;;;;;8.07;100.00;101901.28;4972737;28;20035;-60
2022/03/16 00:28:17;;;;;;;7.47;3.28;;;;;;;8.10;100.00;101903.31;4953269;28;20050;-60
2022/03/16 00:30:44;;;;;;;5.60;2.40;;;;;;;8.13;100.00;101903.50;4969932;28;20548;-62
2022/03/16 00:33:11;;;;;;;6.65;2.80;;;;;;;8.18;100.00;101900.72;4972480;28;20039;-61
2022/03/16 00:35:37;;;;;;;10.05;3.17;;;;;;;8.20;100.00;101917.28;4973100;28;20505;-62
2022/03/16 00:38:02;;;;;;;5.53;2.45;;;;;;;8.25;100.00;101905.66;4955029;28;20043;-62
2022/03/16 00:40:29;;;;;;;9.60;3.22;;;;;;;8.28;100.00;101921.16;4956019;28;20033;-62
2022/03/16 00:42:57;;;;;;;6.93;3.42;;;;;;;8.31;100.00;101925.88;4955545;28;20038;-61
2022/03/16 00:45:25;;;;;;;8.70;3.17;;;;;;;8.36;100.00;101919.59;4942039;28;20035;-62
2022/03/16 00:47:52;;;;;;;7.35;2.80;;;;;;;8.38;100.00;101925.47;4971022;28;20240;-61
2022/03/16 00:50:17;;;;;;;11.32;3.38;;;;;;;8.38;100.00;101931.59;4950789;28;20038;-61
2022/03/16 00:52:43;;;;;;;5.97;2.95;;;;;;;8.38;100.00;101931.59;4972793;28;20037;-61
2022/03/16 00:55:09;;;;;;;6.35;3.17;;;;;;;8.41;100.00;101931.00;4955084;28;20086;-61
2022/03/16 00:57:34;;;;;;;8.43;3.10;;;;;;;8.44;100.00;101933.06;4948352;28;20026;-60
2022/03/16 01:00:00;;;;;;;5.47;2.92;;;;;;;8.45;100.00;101940.03;4970899;28;20074;-61
2022/03/16 01:02:26;;;;;;;3.72;2.72;;;;;;;8.46;100.00;101927.41;4971177;28;20031;-63
2022/03/16 01:04:52;;;;;;;13.55;3.63;;;;;;;8.43;100.00;101931.47;4965827;28;20463;-63
2022/03/16 01:07:17;;;;;;;9.98;3.50;;;;;;;8.44;100.00;101924.22;4971906;28;20046;-62
2022/03/16 01:09:46;;;;;;;8.55;3.78;;;;;;;8.41;100.00;101927.50;4971592;28;20069;-61
2022/03/16 01:12:11;;;;;;;7.00;3.42;;;;;;;8.40;100.00;101932.09;4954741;28;20541;-62
2022/03/16 01:14:38;;;;;;;5.60;3.00;;;;;;;8.40;100.00;101934.00;4966098;28;20074;-62
2022/03/16 01:17:03;;;;;;;6.78;3.45;;;;;;;8.40;100.00;101934.75;4953461;28;20030;-62
2022/03/16 01:19:29;;;;;;;11.10;4.20;;;;;;;8.44;100.00;101927.69;4959566;28;20027;-61
2022/03/16 01:21:55;;;;;;;9.75;3.28;;;;;;;8.46;100.00;101935.44;4949624;28;20478;-61
2022/03/16 01:24:21;;;;;;;8.93;3.17;;;;;;;8.46;100.00;101933.53;4943990;29;20126;-62
2022/03/16 01:26:46;;;;;;;8.27;2.92;;;;;;;8.48;100.00;101925.97;4964529;28;20183;-62
2022/03/16 01:29:11;;;;;;;6.40;3.17;;;;;;;8.49;100.00;101938.31;4953504;28;20023;-59
2022/03/16 01:31:37;;;;;;;6.45;3.10;;;;;;;8.50;100.00;101939.88;4966682;28;20061;-59
2022/03/16 01:34:03;;;;;;;8.45;3.60;;;;;;;8.51;100.00;101943.38;4953431;28;20027;-61
2022/03/16 01:36:28;;;;;;;10.40;3.63;;;;;;;8.49;100.00;101938.31;4954265;28;20481;-61
2022/03/16 01:38:54;;;;;;;5.68;3.30;;;;;;;8.49;100.00;101948.25;4966570;28;20396;-61
2022/03/16 01:41:21;;;;;;;6.38;2.83;;;;;;;8.47;100.00;101953.94;4950546;29;20031;-60
2022/03/16 01:43:52;;;;;;;8.57;3.17;;;;;;;8.46;100.00;101963.06;4955178;28;20042;-61
2022/03/16 01:46:20;;;;;;;11.60;3.58;;;;;;;8.45;100.00;101955.31;4955023;28;20114;-62
2022/03/16 01:48:46;;;;;;;6.88;3.05;;;;;;;8.43;100.00;101966.38;4969082;28;20250;-62
2022/03/16 01:51:13;;;;;;;7.50;3.22;;;;;;;8.42;100.00;101967.47;4958583;28;20038;-61
2022/03/16 01:53:40;;;;;;;7.30;3.83;;;;;;;8.40;100.00;101966.97;4966644;28;20035;-61
2022/03/16 01:56:06;;;;;;;11.20;3.28;;;;;;;8.40;100.00;101971.56;4935110;29;20070;-60
2022/03/16 01:58:31;;;;;;;11.05;4.65;;;;;;;8.37;100.00;101956.88;4955941;28;20105;-61
2022/03/16 02:01:00;;;;;;;9.77;4.15;;;;;;;8.39;100.00;101976.13;4947255;28;20031;-61
2022/03/16 02:03:25;;;;;;;7.38;3.22;;;;;;;8.38;100.00;101968.41;4947894;28;20226;-62
2022/03/16 02:05:51;;;;;;;8.48;3.47;;;;;;;8.37;100.00;101983.72;4937313;29;20031;-61
2022/03/16 02:08:17;;;;;;;7.22;3.88;;;;;;;8.38;100.00;101979.13;4953841;28;20031;-61
2022/03/16 02:10:42;;;;;;;6.78;3.40;;;;;;;8.38;100.00;101973.78;4966844;28;20038;-60
2022/03/16 02:13:12;;;;;;;8.75;3.83;;;;;;;8.38;100.00;101968.41;4971368;28;20037;-62
2022/03/16 02:15:38;;;;;;;5.30;3.00;;;;;;;8.36;100.00;101975.97;4970717;28;20101;-62
2022/03/16 02:18:05;;;;;;;6.75;2.83;;;;;;;8.37;100.00;101978.34;4959615;28;20037;-61
2022/03/16 02:20:31;;;;;;;6.68;3.25;;;;;;;8.38;100.00;101973.78;4954065;28;20524;-59
2022/03/16 02:23:01;;;;;;;7.25;4.10;;;;;;;8.35;100.00;101972.47;4968823;28;20026;-61
2022/03/16 02:25:31;;;;;;;6.95;3.22;;;;;;;8.34;100.00;101984.34;4968824;28;20070;-61
2022/03/16 02:27:57;;;;;;;4.28;3.10;;;;;;;8.34;100.00;101972.78;4969660;28;20795;-61
2022/03/16 02:30:25;;;;;;;6.93;3.45;;;;;;;8.33;100.00;101990.78;4962677;28;20440;-62
2022/03/16 02:32:50;;;;;;;8.82;4.15;;;;;;;8.30;100.00;101983.34;4970028;28;20039;-62
2022/03/16 02:35:16;;;;;;;12.10;3.28;;;;;;;8.29;100.00;101987.13;4970038;28;20027;-62
2022/03/16 02:37:42;;;;;;;6.65;3.30;;;;;;;8.29;100.00;101987.13;4965120;28;20035;-61
2022/03/16 02:40:11;;;;;;;6.45;3.03;;;;;;;8.25;100.00;101988.03;4953046;28;20082;-60
2022/03/16 02:42:37;;;;;;;5.40;3.00;;;;;;;8.23;100.00;101993.69;4970944;28;20041;-61
2022/03/16 02:45:05;;;;;;;7.13;3.53;;;;;;;8.25;100.00;101993.41;4953112;28;20557;-61
2022/03/16 02:47:30;;;;;;;8.95;4.00;;;;;;;8.23;100.00;101999.84;4965323;28;20054;-61
2022/03/16 02:49:56;;;;;;;10.63;3.78;;;;;;;8.21;100.00;102001.25;4967316;28;20037;-61
2022/03/16 02:52:22;;;;;;;6.40;3.08;;;;;;;8.23;100.00;102001.72;4940216;29;20460;-61
2022/03/16 02:54:50;;;;;;;6.95;2.85;;;;;;;8.23;100.00;101999.03;4967976;28;20038;-59
2022/03/16 02:57:16;;;;;;;10.43;3.28;;;;;;;8.21;100.00;102003.91;4970876;28;20027;-60
2022/03/16 02:59:42;;;;;;;12.27;3.92;;;;;;;8.08;100.00;101997.53;4969542;28;20035;-60
2022/03/16 03:02:10;;;;;;;5.40;3.05;;;;;;;8.06;100.00;101994.34;4964856;28;20035;-62
2022/03/16 03:04:35;;;;;;;7.68;3.35;;;;;;;8.06;100.00;101994.34;4955037;28;20034;-62
2022/03/16 03:07:01;;;;;;;9.88;3.30;;;;;;;8.05;100.00;102000.03;4953781;28;20033;-61
2022/03/16 03:09:26;;;;;;;11.10;3.65;;;;;;;7.99;100.00;102001.25;4970664;28;20085;-61
2022/03/16 03:11:52;;;;;;;9.30;3.60;;;;;;;7.92;100.00;102000.84;4968668;28;20121;-62
2022/03/16 03:14:18;;;;;;;6.40;3.45;;;;;;;7.87;100.00;101992.94;4970701;28;20502;-62
2022/03/16 03:16:43;;;;;;;7.68;4.03;;;;;;;7.83;100.00;101995.44;4971811;28;20520;-61
2022/03/16 03:19:09;;;;;;;7.32;3.92;;;;;;;7.72;100.00;101991.41;4953290;28;20125;-61
2022/03/16 03:21:34;;;;;;;11.55;3.22;;;;;;;7.71;100.00;101992.47;4958730;28;20042;-61
2022/03/16 03:23:59;;;;;;;11.05;3.88;;;;;;;7.70;100.00;101992.78;4970907;28;20067;-61
2022/03/16 03:26:25;;;;;;;8.48;3.80;;;;;;;7.66;100.00;101984.56;4970456;28;20041;-61
2022/03/16 03:28:51;;;;;;;6.55;3.10;;;;;;;7.65;100.00;101992.88;4950639;28;20031;-61
2022/03/16 03:31:17;;;;;;;7.95;3.67;;;;;;;7.60;100.00;101982.28;4970413;28;20371;-59
2022/03/16 03:33:43;;;;;;;10.93;3.92;;;;;;;7.56;100.00;101989.34;4969740;28;20027;-61
2022/03/16 03:36:08;;;;;;;7.00;3.55;;;;;;;7.51;100.00;101984.09;4947191;28;20035;-55
2022/03/16 03:38:33;;;;;;;6.50;3.20;;;;;;;7.45;100.00;101975.38;4968474;28;20027;-58
2022/03/16 03:40:59;;;;;;;9.68;3.22;;;;;;;7.45;100.00;101977.25;4969839;28;20113;-59
2022/03/16 03:43:24;;;;;;;6.03;2.97;;;;;;;7.46;100.00;101985.00;4940838;28;20160;-54
2022/03/16 03:45:50;;;;;;;7.78;3.45;;;;;;;7.42;100.00;101985.88;4967276;28;20030;-58
2022/03/16 03:48:15;;;;;;;14.95;3.70;;;;;;;7.37;100.00;101991.38;4969578;28;20031;-60
2022/03/16 03:50:41;;;;;;;6.68;3.58;;;;;;;7.32;100.00;101990.38;4972677;28;20066;-59
2022/03/16 03:53:06;;;;;;;11.15;3.35;;;;;;;7.32;100.00;101995.72;4971827;28;20039;-61
2022/03/16 03:55:31;;;;;;;10.70;4.00;;;;;;;7.34;100.00;101991.97;4973469;28;20548;-60
2022/03/16 03:57:57;;;;;;;11.00;3.83;;;;;;;7.32;100.00;102003.78;4973112;28;20493;-63
2022/03/16 04:00:23;;;;;;;9.93;3.80;;;;;;;7.29;100.00;101995.53;4973199;28;20043;-62
2022/03/16 04:02:50;;;;;;;5.93;2.60;;;;;;;7.26;100.00;101999.59;4961755;28;20397;-63
2022/03/16 04:05:19;;;;;;;12.05;3.30;;;;;;;7.24;100.00;102000.97;4956527;28;20034;-63
2022/03/16 04:07:46;;;;;;;12.02;3.58;;;;;;;7.24;100.00;102004.47;4966960;28;20038;-62
2022/03/16 04:10:12;;;;;;;7.80;3.65;;;;;;;7.22;100.00;102003.16;4972301;28;20035;-63
2022/03/16 04:12:38;;;;;;;11.23;3.50;;;;;;;7.21;100.00;101997.03;4972939;28;20070;-60
2022/03/16 04:15:05;;;;;;;11.52;4.72;;;;;;;7.16;100.00;102001.72;4974335;28;20183;-62
2022/03/16 04:17:30;;;;;;;10.48;3.67;;;;;;;7.12;100.00;102001.47;4965382;28;20093;-59
2022/03/16 04:19:55;;;;;;;7.30;3.67;;;;;;;7.11;100.00;102005.28;4972287;28;20035;-62
2022/03/16 04:22:21;;;;;;;12.75;3.63;;;;;;;7.08;100.00;102005.84;4974286;28;20042;-61
2022/03/16 04:24:46;;;;;;;11.68;3.47;;;;;;;7.06;100.00;102001.91;4967249;28;20035;-59
2022/03/16 04:27:12;;;;;;;8.00;3.15;;;;;;;7.03;100.00;101999.81;4964756;28;20548;-63
2022/03/16 04:29:37;;;;;;;10.02;3.35;;;;;;;7.01;100.00;102005.47;4973386;28;20035;-62
2022/03/16 04:32:03;;;;;;;13.93;4.50;;;;;;;7.01;100.00;102005.47;4970516;28;20035;-59
2022/03/16 04:34:28;;;;;;;10.75;4.22;;;;;;;6.97;100.00;101999.09;4971485;28;20030;-62
2022/03/16 04:36:54;;;;;;;11.65;3.95;;;;;;;6.89;100.00;101997.13;4968142;28;20050;-62
2022/03/16 04:39:19;;;;;;;10.13;3.38;;;;;;;6.91;100.00;101999.53;4952416;28;20037;-61
2022/03/16 04:41:44;;;;;;;9.10;4.13;;;;;;;6.93;100.00;102006.16;4952178;28;20150;-63
2022/03/16 04:44:10;;;;;;;7.97;3.55;;;;;;;6.88;100.00;102008.13;4970846;28;20058;-62
2022/03/16 04:46:35;;;;;;;14.32;4.45;;;;;;;6.85;100.00;102004.16;4971257;28;20251;-61
2022/03/16 04:49:01;;;;;;;22.65;4.50;;;;;;;6.84;100.00;102015.97;4971302;28;20023;-63
2022/03/16 04:51:26;;;;;;;9.43;3.95;;;;;;;6.82;100.00;102012.78;4968081;28;20038;-61
2022/03/16 04:53:52;;;;;;;11.05;4.28;;;;;;;6.82;100.00;102002.06;4971194;28;20398;-61
2022/03/16 04:56:17;;;;;;;8.32;3.47;;;;;;;6.75;100.00;102000.88;4955565;28;20039;-62
2022/03/16 04:58:42;;;;;;;9.00;3.92;;;;;;;6.77;100.00;101994.16;4932202;29;20633;-61
2022/03/16 05:01:08;;;;;;;8.50;3.40;;;;;;;6.77;100.00;101988.00;4966585;28;20043;-60
2022/03/16 05:03:33;;;;;;;12.27;4.72;;;;;;;6.75;100.00;102001.69;4962743;28;20031;-59
2022/03/16 05:05:59;;;;;;;8.90;3.63;;;;;;;6.73;100.00;102000.38;4966321;28;20121;-62
2022/03/16 05:08:24;;;;;;;11.00;4.13;;;;;;;6.73;100.00;102000.38;4967994;28;20045;-60
2022/03/16 05:10:50;;;;;;;9.38;3.53;;;;;;;6.71;100.00;101998.00;4970076;28;20112;-61
2022/03/16 05:13:15;;;;;;;8.35;3.55;;;;;;;6.63;100.00;101993.31;4971292;28;20367;-62
2022/03/16 05:15:41;;;;;;;10.07;4.65;;;;;;;6.61;100.00;101998.19;4972337;28;20039;-62
2022/03/16 05:18:06;;;;;;;9.82;3.35;;;;;;;6.62;100.00;101998.97;4959470;28;20050;-61
2022/03/16 05:20:32;;;;;;;11.00;4.32;;;;;;;6.63;100.00;102006.72;4972422;28;20062;-61
2022/03/16 05:22:57;;;;;;;8.23;3.65;;;;;;;6.60;100.00;101996.56;4953300;28;20061;-61
2022/03/16 05:25:30;;;;;;;14.05;4.07;;;;;;;6.55;100.00;101994.00;4970155;28;20034;-59
2022/03/16 05:27:56;;;;;;;7.25;3.00;;;;;;;6.52;100.00;102002.63;4971620;28;20039;-61
2022/03/16 05:30:23;;;;;;;7.72;4.03;;;;;;;6.52;100.00;101999.16;4969124;28;20445;-62
2022/03/16 05:32:54;;;;;;;8.85;3.25;;;;;;;6.49;100.00;102005.88;4969305;28;20482;-60
2022/03/16 05:35:19;;;;;;;7.50;3.33;;;;;;;6.47;100.00;102013.41;4947769;28;20118;-61
2022/03/16 05:37:45;;;;;;;11.90;4.03;;;;;;;6.44;100.00;102026.56;4965528;28;20518;-61
2022/03/16 05:40:10;;;;;;;7.20;3.28;;;;;;;6.44;100.00;102032.72;4967877;28;20058;-62
2022/03/16 05:42:36;;;;;;;8.45;3.40;;;;;;;6.44;100.00;102031.91;4970613;28;20476;-61
2022/03/16 05:45:03;;;;;;;8.38;3.33;;;;;;;6.42;100.00;102032.22;4969594;28;20105;-59
2022/03/16 05:47:29;;;;;;;13.02;4.15;;;;;;;6.39;100.00;102038.94;4963506;28;20043;-59
2022/03/16 05:49:55;;;;;;;13.43;4.93;;;;;;;6.38;100.00;102049.94;4968874;28;20031;-62
2022/03/16 05:52:22;;;;;;;13.40;3.83;;;;;;;6.41;100.00;102053.91;4948584;28;20555;-61
2022/03/16 05:54:49;;;;;;;5.85;3.25;;;;;;;6.39;100.00;102046.16;4967706;28;20478;-61
2022/03/16 05:57:15;;;;;;;10.10;3.58;;;;;;;6.39;100.00;102040.81;4971574;28;20093;-61
2022/03/16 05:59:42;;;;;;;9.00;4.18;;;;;;;6.39;100.00;102056.88;4937013;28;20030;-61
2022/03/16 06:02:09;;;;;;;11.32;4.57;;;;;;;6.41;100.00;102049.34;4967034;28;20043;-61
2022/03/16 06:04:35;;;;;;;15.07;4.72;;;;;;;6.45;100.00;102055.69;4970358;28;20113;-61
2022/03/16 06:07:00;;;;;;;9.38;3.60;;;;;;;6.47;100.00;102066.91;4968832;28;20159;-59
2022/03/16 06:09:26;;;;;;;9.93;4.15;;;;;;;6.49;100.00;102056.72;4960324;28;20437;-60
2022/03/16 06:11:51;;;;;;;11.27;4.07;;;;;;;6.53;100.00;102062.25;4967108;28;20468;-61
2022/03/16 06:14:16;;;;;;;8.07;4.10;;;;;;;6.54;100.00;102064.69;4968584;28;20625;-61
2022/03/16 06:16:42;;;;;;;7.85;3.30;;;;;;;6.58;100.00;102070.22;4971230;28;20061;-60
2022/03/16 06:19:07;;;;;;;17.27;4.60;;;;;;;6.57;100.00;102072.09;4938087;28;20052;-61
2022/03/16 06:21:33;;;;;;;8.65;3.90;;;;;;;6.58;100.00;102076.34;4952710;28;20050;-60
2022/03/16 06:23:58;;;;;;;11.48;4.72;;;;;;;6.61;100.00;102073.13;4964919;28;20035;-61
2022/03/16 06:26:24;;;;;;;12.20;3.83;;;;;;;6.63;100.00;102087.00;4950501;28;20093;-62
2022/03/16 06:28:49;;;;;;;9.13;3.40;;;;;;;6.62;100.00;102088.06;4958574;28;20479;-62
2022/03/16 06:31:14;;;;;;;10.77;4.38;;;;;;;6.61;100.00;102091.84;4961024;28;20090;-61
2022/03/16 06:33:40;;;;;;;9.57;3.90;;;;;;;6.62;100.00;102100.69;4966806;28;20046;-62
2022/03/16 06:36:05;;;;;;;11.82;4.35;;;;;;;6.60;100.00;102098.25;4961476;28;20046;-62
2022/03/16 06:38:31;;;;;;;8.32;3.70;;;;;;;6.67;100.00;102100.59;4958351;28;20031;-59
2022/03/16 06:40:56;;;;;;;14.95;4.68;;;;;;;6.71;100.00;102097.03;4963457;28;20053;-61
2022/03/16 06:43:21;;;;;;;6.85;4.38;;;;;;;6.78;100.00;102100.13;4968793;28;20035;-62
2022/03/16 06:45:47;;;;;;;8.32;3.92;;;;;;;6.83;100.00;102102.69;4968872;28;20069;-61
2022/03/16 06:48:12;;;;;;;11.85;4.95;;;;;;;6.91;100.00;102095.91;4946158;28;20058;-62
2022/03/16 06:50:38;;;;;;;12.85;5.28;;;;;;;7.07;100.00;102097.22;4971290;28;20038;-61
2022/03/16 06:53:03;;;;;;;13.88;4.97;;;;;;;6.99;100.00;102098.69;4969663;28;20026;-60
2022/03/16 06:55:29;;;;;;;14.05;4.90;;;;;;;7.11;100.00;102096.34;4969382;28;20066;-62
2022/03/16 06:57:54;;;;;;;11.68;4.43;;;;;;;7.29;100.00;102095.47;4953985;28;20123;-62
2022/03/16 07:00:20;;;;;;;10.52;4.43;;;;;;;7.28;100.00;102096.53;4968529;28;20126;-61
2022/03/16 07:02:59;;;;;;;12.75;4.25;;;;;;;7.39;100.00;102102.53;4965204;28;20402;-60
2022/03/16 07:05:36;;;;;;;16.38;4.70;;;;;;;7.60;100.00;102101.03;4947441;28;20043;-62
2022/03/16 07:08:04;;;;;;;10.93;4.10;;;;;;;7.64;100.00;102101.22;4967292;28;20113;-60
2022/03/16 07:10:30;;;;;;;13.75;4.78;;;;;;;7.81;100.00;102114.81;4966509;28;20444;-62
2022/03/16 07:12:56;;;;;;;15.65;4.68;;;;;;;7.83;100.00;102101.91;4971677;28;20409;-61
2022/03/16 07:15:22;;;;;;;12.10;4.57;;;;;;;7.91;100.00;102110.03;4970366;28;20043;-62
2022/03/16 07:17:48;;;;;;;10.85;4.25;;;;;;;7.95;100.00;102110.22;4970466;28;20027;-60
2022/03/16 07:20:13;;;;;;;10.02;3.65;;;;;;;8.06;100.00;102111.59;4964967;28;20030;-62
2022/03/16 07:22:39;;;;;;;15.32;4.18;;;;;;;8.07;100.00;102113.19;4967269;28;20508;-60
2022/03/16 07:25:09;;;;;;;12.55;4.30;;;;;;;8.09;100.00;102119.06;4971952;28;20114;-61
2022/03/16 07:27:39;;;;;;;13.52;3.97;;;;;;;8.08;100.00;102125.50;4973921;28;20070;-61
2022/03/16 07:30:09;;;;;;;9.05;4.00;;;;;;;8.07;100.00;102124.69;4950834;28;20518;-62
2022/03/16 07:32:38;;;;;;;7.75;3.33;;;;;;;8.11;100.00;102125.69;4972779;28;20042;-60
2022/03/16 07:35:05;;;;;;;10.10;4.05;;;;;;;8.18;100.00;102126.09;4955843;28;20043;-62
2022/03/16 07:37:30;;;;;;;7.72;3.88;;;;;;;8.19;100.00;102135.69;4970244;28;20229;-61
2022/03/16 07:39:56;;;;;;;7.80;3.35;;;;;;;8.25;100.00;102131.03;4970836;28;20063;-61
2022/03/16 07:42:21;;;;;;;8.63;3.30;;;;;;;8.29;100.00;102144.66;4972157;28;20031;-60
2022/03/16 07:44:49;;;;;;;10.32;3.70;;;;;;;8.30;100.00;102144.38;4969282;28;20125;-59
2022/03/16 07:47:14;;;;;;;8.20;3.78;;;;;;;8.31;100.00;102137.91;4972981;28;20030;-62
2022/03/16 07:49:40;;;;;;;10.05;4.38;;;;;;;8.34;100.00;102139.19;4973847;28;22262;-62
2022/03/16 07:52:05;;;;;;;10.07;4.30;;;;;;;8.36;100.00;102143.16;4948362;28;20030;-60
2022/03/16 07:54:31;;;;;;;9.63;3.63;;;;;;;8.36;100.00;102143.16;4970175;28;20039;-61
2022/03/16 07:56:56;;;;;;;11.40;4.18;;;;;;;8.41;100.00;102132.31;4972373;28;20045;-61
2022/03/16 07:59:22;;;;;;;10.70;4.03;;;;;;;8.45;100.00;102144.03;4972001;28;20120;-59
2022/03/16 08:01:47;;;;;;;8.63;3.30;;;;;;;8.45;100.00;102143.22;4950550;28;20043;-62
2022/03/16 08:04:15;;;;;;;11.52;4.07;;;;;;;8.47;100.00;102141.84;4954583;28;20525;-60
2022/03/16 08:06:41;;;;;;;11.32;4.07;;;;;;;8.48;100.00;102143.41;4952421;28;20156;-61
2022/03/16 08:09:07;;;;;;;10.48;3.45;;;;;;;8.50;100.00;102143.91;4962572;28;20125;-60
2022/03/16 08:11:32;;;;;;;8.73;3.72;;;;;;;8.56;100.00;102144.56;4961003;28;20117;-62
2022/03/16 08:13:58;;;;;;;11.13;4.10;;;;;;;8.61;100.00;102145.28;4943961;28;20072;-61
2022/03/16 08:16:24;;;;;;;12.18;3.47;;;;;;;8.64;100.00;102147.34;4970008;28;20044;-62
2022/03/16 08:18:49;;;;;;;11.50;3.63;;;;;;;8.74;100.00;102148.97;4948779;28;20574;-63
2022/03/16 08:21:14;;;;;;;11.10;4.15;;;;;;;8.86;100.00;102151.91;4971906;28;20028;-62
2022/03/16 08:23:40;;;;;;;8.98;3.28;;;;;;;8.91;100.00;102154.47;4969417;28;20557;-63
2022/03/16 08:26:05;;;;;;;10.88;3.50;;;;;;;8.93;100.00;102158.44;4971540;28;20149;-63
2022/03/16 08:28:31;;;;;;;8.45;3.17;;;;;;;8.98;100.00;102162.91;4968595;28;20129;-60
2022/03/16 08:30:58;;;;;;;11.10;3.42;;;;;;;9.05;100.00;102161.38;4970725;28;20034;-62
2022/03/16 08:33:23;;;;;;;13.93;3.55;;;;;;;9.14;100.00;102152.56;4969349;28;20081;-62
2022/03/16 08:35:50;;;;;;;11.75;4.18;;;;;;;9.25;100.00;102160.06;4970913;28;20486;-61
2022/03/16 08:38:16;;;;;;;8.45;3.42;;;;;;;9.26;100.00;102160.84;4968961;28;20037;-62
2022/03/16 08:40:41;;;;;;;7.32;3.17;;;;;;;9.26;99.97;102160.84;4949368;28;20034;-61
2022/03/16 08:43:07;;;;;;;7.32;3.35;;;;;;;9.32;100.00;102148.84;4967179;28;20117;-61
2022/03/16 08:45:33;;;;;;;9.35;3.70;;;;;;;9.46;99.47;102163.00;4966446;28;20041;-59
2022/03/16 08:47:59;;;;;;;10.43;4.50;;;;;;;9.66;98.92;102160.56;4973117;28;20081;-62
2022/03/16 08:50:25;;;;;;;7.72;3.38;;;;;;;9.57;98.30;102150.88;4971284;28;20098;-61
2022/03/16 08:52:50;;;;;;;6.60;3.28;;;;;;;9.60;98.55;102152.97;4958032;28;20114;-61
2022/03/16 08:55:16;;;;;;;10.88;4.18;;;;;;;9.67;99.21;102155.97;4968759;28;20122;-62
2022/03/16 08:57:45;;;;;;;9.23;4.32;;;;;;;9.74;98.76;102157.09;4945969;28;20046;-61
2022/03/16 09:00:15;;;;;;;7.28;3.17;;;;;;;9.81;98.40;102162.03;4956748;28;20037;-59
2022/03/16 09:02:45;;;;;;;8.05;3.28;;;;;;;9.90;97.92;102168.22;4971174;28;20026;-62
2022/03/16 09:05:12;;;;;;;8.20;3.22;;;;;;;9.96;98.23;102169.69;4954822;28;20035;-60
2022/03/16 09:07:40;;;;;;;11.52;3.95;;;;;;;9.99;97.27;102166.34;4935151;28;20031;-61
2022/03/16 09:10:07;;;;;;;9.75;3.35;;;;;;;10.02;97.55;102163.06;4961014;28;20287;-60
2022/03/16 09:12:32;;;;;;;8.63;3.40;;;;;;;10.16;97.67;102166.44;4966330;28;20034;-61
2022/03/16 09:14:58;;;;;;;8.90;3.33;;;;;;;10.28;96.82;102166.59;4965193;28;20041;-60
2022/03/16 09:17:24;;;;;;;8.32;3.35;;;;;;;10.35;96.65;102171.53;4947150;28;20051;-59
2022/03/16 09:19:50;;;;;;;9.13;3.35;;;;;;;10.47;96.36;102169.00;4965325;28;20552;-61
2022/03/16 09:22:15;;;;;;;6.22;3.03;;;;;;;10.46;95.53;102175.50;4970119;28;20031;-61
2022/03/16 09:24:41;;;;;;;8.88;2.67;;;;;;;10.58;94.62;102176.47;4965648;28;20077;-62
2022/03/16 09:27:07;;;;;;;14.75;3.20;;;;;;;10.63;94.15;102168.22;4960599;28;20074;-60
2022/03/16 09:29:33;;;;;;;11.10;3.15;;;;;;;10.77;93.54;102186.91;4959078;28;20038;-60
2022/03/16 09:31:58;;;;;;;5.60;2.70;;;;;;;10.76;91.84;102183.41;4966372;28;20383;-62
2022/03/16 09:34:24;;;;;;;10.50;2.28;;;;;;;10.81;91.50;102182.47;4967606;28;20225;-61
2022/03/16 09:36:50;;;;;;;7.60;2.90;;;;;;;10.93;90.69;102189.91;4958015;28;20038;-63
2022/03/16 09:39:16;;;;;;;6.28;3.00;;;;;;;11.22;90.29;102184.63;4949487;28;20042;-60
2022/03/16 09:41:42;;;;;;;5.03;2.22;;;;;;;11.47;88.63;102181.88;4962859;28;20038;-62
2022/03/16 09:44:09;;;;;;;5.60;2.30;;;;;;;11.70;88.57;102194.03;4965047;28;20061;-62
2022/03/16 09:46:36;;;;;;;7.63;2.40;;;;;;;11.96;86.72;102188.50;4961508;28;20394;-63
2022/03/16 09:49:06;;;;;;;3.90;2.10;;;;;;;12.05;84.75;102191.94;4943616;28;20418;-59
2022/03/16 09:51:39;;;;;;;6.25;2.33;;;;;;;12.03;82.85;102194.19;4958064;28;20074;-62
2022/03/16 09:54:05;;;;;;;5.28;2.35;;;;;;;12.08;80.61;102199.38;4962513;28;20074;-63
2022/03/16 09:56:32;;;;;;;6.72;2.60;;;;;;;12.07;81.78;102203.22;4965771;28;20117;-63
2022/03/16 09:58:58;;;;;;;6.30;2.58;;;;;;;12.10;82.06;102201.78;4963927;28;20390;-61
2022/03/16 10:01:23;;;;;;;4.07;2.00;;;;;;;12.21;81.19;102209.19;4964038;28;20038;-62
2022/03/16 10:03:49;;;;;;;5.72;2.22;;;;;;;12.28;81.03;102214.06;4964125;28;20121;-62
2022/03/16 10:52:41;;;;;;;2.55;1.73;;;;;;;12.83;72.74;102216.53;4933048;28;20053;-60
2022/03/16 10:55:08;;;;;;;6.65;2.42;;;;;;;12.83;73.37;102208.41;4942093;28;20482;-61
2022/03/16 10:57:34;;;;;;;3.97;1.90;;;;;;;12.88;74.16;102213.59;4933842;29;21097;-62
2022/03/16 11:00:02;;;;;;;5.28;2.10;;;;;;;12.88;73.31;102213.59;4938208;28;20043;-62
2022/03/16 11:02:33;;;;;;;3.95;1.98;;;;;;;12.82;73.74;102207.59;4945740;28;20049;-62
2022/03/16 11:04:59;;;;;;;4.53;1.95;;;;;;;12.89;74.10;102215.19;4940163;28;20044;-60
2022/03/16 11:07:25;;;;;;;5.80;1.80;;;;;;;12.87;73.37;102220.16;4944363;29;20039;-62
2022/03/16 11:09:51;;;;;;;5.25;1.90;;;;;;;12.84;72.30;102207.28;4940145;28;20047;-62
2022/03/16 11:15:04;;;;;;;4.55;2.38;;;;;;;12.92;72.17;102215.31;4948781;28;20679;-61
2022/03/16 11:17:34;;;;;;;7.93;2.20;;;;;;;12.91;71.23;102207.56;4946682;29;20391;-63
2022/03/16 11:20:02;;;;;;;4.28;1.83;;;;;;;12.89;71.12;102213.25;4938820;28;20039;-61
2022/03/16 11:26:13;;;;;;;5.78;2.42;;;;;;;12.90;72.94;102217.56;4935064;28;20137;-62
2022/03/16 11:28:57;;;;;;;6.78;1.75;;;;;;;12.99;72.17;102220.97;4926173;28;20420;-62
2022/03/16 11:31:25;;;;;;;2.80;1.77;;;;;;;13.06;71.50;102212.38;4941181;28;20075;-61
2022/03/16 11:33:52;;;;;;;5.53;2.25;;;;;;;13.21;68.75;102214.44;4947232;28;20105;-62
2022/03/16 11:36:59;;;;;;;4.32;1.90;;;;;;;13.01;69.04;102201.69;4941270;28;20027;-60
2022/03/16 11:39:24;;;;;;;4.93;2.30;;;;;;;13.01;70.83;102196.28;4944709;28;20566;-61
2022/03/16 11:41:53;;;;;;;7.35;2.20;;;;;;;13.13;70.51;102205.28;4940041;29;20118;-61
2022/03/16 11:44:25;;;;;;;4.50;1.70;;;;;;;13.10;69.74;102200.56;4929642;28;20032;-60
2022/03/16 11:47:16;;;;;;;3.55;1.88;;;;;;;13.14;69.27;102201.44;4931910;28;20028;-62
2022/03/16 11:50:02;;;;;;;9.25;2.58;;;;;;;13.10;69.91;102188.94;4948072;28;20035;-63
2022/03/16 11:53:01;;;;;;;3.70;2.35;;;;;;;13.14;69.75;102195.25;4957114;28;20031;-59
2022/03/16 11:55:52;;;;;;;4.07;2.10;;;;;;;13.15;69.07;102194.13;4938224;28;20042;-60
2022/03/16 11:58:29;;;;;;;5.00;1.75;;;;;;;13.15;69.78;102196.84;4940608;28;20097;-62
2022/03/16 12:01:31;;;;;;;4.60;2.33;;;;;;;13.15;70.80;102197.63;4944960;29;20051;-61
2022/03/16 12:03:59;;;;;;;4.85;1.98;;;;;;;13.16;70.89;102193.03;4939333;28;20434;-62
2022/03/16 12:06:48;;;;;;;4.38;1.98;;;;;;;13.24;71.04;102189.44;4942717;28;20086;-60
2022/03/16 12:09:30;;;;;;;5.30;2.40;;;;;;;13.19;71.72;102178.81;4947970;28;20070;-62
2022/03/16 12:15:14;;;;;;;5.50;2.17;;;;;;;13.26;71.08;102171.72;4943878;28;20487;-62
2022/03/16 12:17:52;;;;;;;7.23;2.77;;;;;;;13.25;71.55;102175.56;4940093;28;20047;-62